Time;durP1;ratioP1;P1;durP2;ratioP2;P2;SDS_P1;SDS_P2;PMS_P1;PMS_P2;Temp;Humidity;BMP_temperature;BMP_pressure;BME280_temperature;BME280_humidity;BME280_pressure;Samples;Min_cycle;Max_cycle;Signal;HPM_P1;HPM_P2
2021/07/25 00:00:57;;;;;;;19.30;8.10;;;;;;;18.80;67.34;100681.90;125307;1102;104220;-77
2021/07/25 00:03:27;;;;;;;16.80;8.03;;;;;;;18.76;67.02;100672.12;125354;1102;104622;-77
2021/07/25 00:05:58;;;;;;;23.53;8.67;;;;;;;18.76;67.24;100680.09;125230;1102;104302;-77
2021/07/25 00:08:29;;;;;;;18.50;8.63;;;;;;;18.74;67.52;100679.20;125258;1099;104341;-77
2021/07/25 00:11:00;;;;;;;17.73;8.33;;;;;;;18.69;67.54;100677.41;126127;1099;104143;-78
2021/07/25 00:13:36;;;;;;;20.63;8.07;;;;;;;18.68;67.48;100675.65;126287;1099;104139;-77
2021/07/25 00:16:08;;;;;;;17.20;7.70;;;;;;;18.66;67.35;100680.05;125725;1099;104309;-77
2021/07/25 00:18:38;;;;;;;17.80;7.80;;;;;;;18.65;67.38;100675.62;126336;1099;104251;-77
2021/07/25 00:21:09;;;;;;;19.67;8.07;;;;;;;18.65;67.76;100682.69;126282;1099;104152;-77
2021/07/25 00:23:46;;;;;;;17.47;8.10;;;;;;;18.61;67.79;100673.83;126298;1099;104597;-77
2021/07/25 00:26:25;;;;;;;19.73;8.27;;;;;;;18.60;67.74;100669.38;126228;1099;104267;-75
2021/07/25 00:28:56;;;;;;;17.07;8.13;;;;;;;18.58;68.09;100673.81;126358;1099;104153;-78
2021/07/25 00:31:29;;;;;;;17.37;7.50;;;;;;;18.54;68.18;100677.31;126342;1098;104155;-77
2021/07/25 00:33:59;;;;;;;17.80;7.83;;;;;;;18.52;68.21;100683.52;126275;1099;104155;-77
2021/07/25 00:36:31;;;;;;;19.73;8.13;;;;;;;18.47;68.56;100680.84;126270;1099;104213;-77
2021/07/25 00:39:02;;;;;;;17.30;7.87;;;;;;;18.43;68.53;100682.59;126301;1099;104254;-77
2021/07/25 00:41:33;;;;;;;17.40;7.77;;;;;;;18.41;68.48;100684.33;126332;1099;104156;-77
2021/07/25 00:44:05;;;;;;;18.80;7.60;;;;;;;18.40;68.94;100681.66;126375;1099;104152;-77
2021/07/25 00:46:39;;;;;;;15.80;7.90;;;;;;;18.37;68.67;100674.59;126263;1099;105410;-77
2021/07/25 00:49:10;;;;;;;15.80;7.53;;;;;;;18.32;68.69;100679.87;126342;1099;104217;-78
2021/07/25 00:51:41;;;;;;;18.03;8.10;;;;;;;18.30;69.36;100683.38;125303;1099;104245;-77
2021/07/25 00:54:13;;;;;;;17.85;8.25;;;;;;;18.24;69.51;100680.67;125258;1099;104233;-78
2021/07/25 00:56:45;;;;;;;16.73;7.80;;;;;;;18.19;69.24;100685.95;125919;1099;104258;-76
2021/07/25 00:59:16;;;;;;;18.20;8.17;;;;;;;18.16;69.75;100680.63;126206;1099;104290;-76
2021/07/25 01:01:49;;;;;;;16.27;7.83;;;;;;;18.09;69.50;100686.75;126214;1099;104152;-77
2021/07/25 01:04:37;;;;;;;17.87;8.00;;;;;;;18.05;69.52;100684.97;126189;1099;104223;-78
2021/07/25 01:07:18;;;;;;;17.80;7.83;;;;;;;17.99;69.54;100684.92;125363;1099;104184;-77
2021/07/25 01:09:55;;;;;;;18.07;8.37;;;;;;;17.98;69.68;100683.12;125307;1099;104271;-76
2021/07/25 01:12:34;;;;;;;20.67;8.90;;;;;;;17.96;69.45;100683.99;125244;1099;104140;-77
2021/07/25 01:15:05;;;;;;;17.23;7.63;;;;;;;17.97;69.92;100682.25;125276;1099;104589;-77
2021/07/25 01:17:37;;;;;;;18.33;7.77;;;;;;;17.96;69.79;100691.95;126071;1099;104825;-76
2021/07/25 01:20:10;;;;;;;15.63;7.73;;;;;;;17.94;70.39;100691.06;126237;1099;104322;-77
2021/07/25 01:22:44;;;;;;;16.40;7.62;;;;;;;17.92;70.60;100692.83;126237;1096;104326;-76
2021/07/25 01:25:18;;;;;;;19.50;8.80;;;;;;;17.89;70.58;100687.49;126320;1099;105762;-77
2021/07/25 01:27:49;;;;;;;;;;;;;;;17.83;70.44;100695.37;126282;1098;104171;-77
2021/07/25 01:30:23;;;;;;;17.20;8.63;;;;;;;17.81;70.50;100683.86;126347;1099;104226;-77
2021/07/25 01:32:59;;;;;;;19.83;8.30;;;;;;;17.78;70.93;100690.02;126314;1099;104291;-77
2021/07/25 01:35:31;;;;;;;19.73;8.57;;;;;;;17.78;70.82;100689.14;126268;1099;104815;-76
2021/07/25 01:38:03;;;;;;;18.98;8.35;;;;;;;17.77;70.52;100696.19;126266;1099;104159;-77
2021/07/25 01:40:34;;;;;;;18.90;8.25;;;;;;;17.77;70.74;100696.19;126283;1099;104294;-77
2021/07/25 01:43:07;;;;;;;18.07;8.43;;;;;;;17.76;70.89;100694.44;126331;1099;104192;-77
2021/07/25 01:45:38;;;;;;;17.02;8.18;;;;;;;17.74;71.35;100695.28;126339;1098;104307;-77
2021/07/25 01:48:11;;;;;;;18.23;8.03;;;;;;;17.71;71.49;100697.91;126290;1099;104129;-77
2021/07/25 01:50:47;;;;;;;18.83;8.27;;;;;;;17.69;71.16;100702.31;126338;1099;104143;-77
2021/07/25 01:53:18;;;;;;;18.67;7.80;;;;;;;17.67;71.42;100704.95;126334;1099;104197;-77
2021/07/25 01:55:48;;;;;;;18.43;8.17;;;;;;;17.64;71.66;100702.27;126313;1098;104287;-77
2021/07/25 01:58:19;;;;;;;15.07;7.60;;;;;;;17.61;71.73;100702.24;126290;1099;104153;-77
2021/07/25 02:00:59;;;;;;;16.67;7.50;;;;;;;17.58;71.54;100705.74;126335;1099;104209;-77
2021/07/25 02:03:30;;;;;;;17.70;7.73;;;;;;;17.59;71.63;100707.53;126299;1099;104184;-77
2021/07/25 02:06:01;;;;;;;19.10;7.73;;;;;;;17.58;71.50;100711.05;126382;1099;104643;-78
2021/07/25 02:08:32;;;;;;;17.20;7.77;;;;;;;17.58;71.99;100711.05;126276;1099;104281;-77
2021/07/25 02:11:03;;;;;;;16.17;7.20;;;;;;;17.59;71.29;100711.92;126342;1099;104204;-78
2021/07/25 02:13:34;;;;;;;16.20;7.73;;;;;;;17.64;71.68;100714.63;126361;1099;104211;-77
2021/07/25 02:16:07;;;;;;;16.20;7.53;;;;;;;17.65;71.31;100719.08;126270;1099;104166;-77
2021/07/25 02:18:38;;;;;;;18.27;8.10;;;;;;;17.64;72.12;100722.59;126310;1099;104143;-76
2021/07/25 02:21:08;;;;;;;20.37;8.20;;;;;;;17.59;71.89;100718.14;126331;1099;104153;-76
2021/07/25 02:23:39;;;;;;;16.47;7.50;;;;;;;17.55;71.90;100718.97;126338;1099;104345;-77
2021/07/25 02:26:10;;;;;;;15.90;7.77;;;;;;;17.54;71.73;100725.14;126359;1098;104149;-77
2021/07/25 02:28:40;;;;;;;16.07;7.33;;;;;;;17.54;71.77;100727.80;126241;1099;104312;-76
2021/07/25 02:31:11;;;;;;;17.17;7.83;;;;;;;17.55;72.20;100728.70;126325;1099;104191;-77
2021/07/25 02:33:42;;;;;;;17.33;7.60;;;;;;;17.53;72.02;100726.04;126308;1099;104143;-77
2021/07/25 02:36:13;;;;;;;18.17;7.43;;;;;;;17.53;72.08;100720.73;126339;1099;104201;-77
2021/07/25 02:38:44;;;;;;;17.90;7.50;;;;;;;17.53;71.57;100717.17;126247;1099;104137;-77
2021/07/25 02:41:14;;;;;;;18.33;7.23;;;;;;;17.52;72.18;100718.94;126258;1099;104153;-77
2021/07/25 02:43:45;;;;;;;18.03;7.47;;;;;;;17.53;71.92;100726.04;126337;1099;104144;-76
2021/07/25 02:46:17;;;;;;;16.87;8.23;;;;;;;17.51;72.26;100729.53;126303;1099;104137;-76
2021/07/25 02:48:48;;;;;;;16.27;7.07;;;;;;;17.51;72.24;100734.84;126281;1099;104155;-77
2021/07/25 02:51:21;;;;;;;17.00;7.57;;;;;;;17.50;72.29;100738.36;126334;1099;104229;-77
2021/07/25 02:53:51;;;;;;;17.10;7.80;;;;;;;17.50;72.24;100735.70;126269;1099;104179;-76
2021/07/25 02:56:23;;;;;;;16.70;7.77;;;;;;;17.49;72.75;100737.48;126337;1098;104714;-76
2021/07/25 02:58:53;;;;;;;16.83;7.33;;;;;;;17.47;72.57;100738.32;126287;1099;104140;-77
2021/07/25 03:01:24;;;;;;;14.63;6.87;;;;;;;17.43;72.30;100738.29;126282;1099;104143;-76
2021/07/25 03:03:57;;;;;;;16.55;7.72;;;;;;;17.45;72.68;100730.34;126343;1099;104182;-76
2021/07/25 03:06:28;;;;;;;16.65;7.15;;;;;;;17.45;72.89;100735.66;126294;1099;104277;-77
2021/07/25 03:08:59;;;;;;;18.93;7.73;;;;;;;17.47;72.96;100735.67;126298;1099;105223;-76
2021/07/25 03:11:30;;;;;;;16.77;7.80;;;;;;;17.47;72.84;100731.28;126280;1099;104220;-77
2021/07/25 03:14:00;;;;;;;21.73;8.27;;;;;;;17.46;73.01;100729.48;126355;1099;104222;-78
2021/07/25 03:16:31;;;;;;;17.33;7.63;;;;;;;17.46;72.78;100733.91;126327;1099;104153;-77
2021/07/25 03:19:02;;;;;;;21.53;8.10;;;;;;;17.44;73.26;100731.23;126259;1099;104140;-77
2021/07/25 03:21:33;;;;;;;21.50;8.10;;;;;;;17.45;73.29;100735.66;126290;1099;104638;-77
2021/07/25 03:24:03;;;;;;;18.37;7.50;;;;;;;17.46;72.64;100739.22;126330;1099;104156;-77
2021/07/25 03:26:35;;;;;;;16.80;8.03;;;;;;;17.46;73.05;100741.87;126392;1099;104137;-78
2021/07/25 03:29:06;;;;;;;16.07;7.57;;;;;;;17.49;73.14;100748.09;126044;1099;105965;-77
2021/07/25 03:31:36;;;;;;;18.25;7.55;;;;;;;17.53;73.27;100746.35;126184;1099;104143;-78
2021/07/25 03:34:07;;;;;;;19.27;7.80;;;;;;;17.57;72.89;100749.05;125424;1099;104370;-77
2021/07/25 03:36:40;;;;;;;14.60;7.17;;;;;;;17.60;72.83;100751.74;126224;1099;104268;-77
2021/07/25 03:39:13;;;;;;;16.97;7.90;;;;;;;17.63;73.01;100757.98;126266;1099;104165;-77
2021/07/25 03:41:44;;;;;;;15.83;7.60;;;;;;;17.64;73.28;100757.08;126092;1099;118618;-78
2021/07/25 03:44:15;;;;;;;14.77;7.40;;;;;;;17.68;73.29;100759.79;126152;1099;104310;-77
2021/07/25 03:46:46;;;;;;;17.40;7.57;;;;;;;17.71;73.25;100753.64;125278;1099;104172;-78
2021/07/25 03:49:17;;;;;;;15.73;7.73;;;;;;;17.74;73.24;100754.55;126165;1099;104325;-78
2021/07/25 03:51:49;;;;;;;;;;;;;;;17.77;72.83;100749.27;126204;1099;104299;-78
2021/07/25 03:54:20;;;;;;;13.37;7.37;;;;;;;17.81;73.17;100759.92;126193;1099;104179;-78
2021/07/25 03:56:51;;;;;;;17.27;7.57;;;;;;;17.82;73.37;100757.28;126178;1099;104280;-77
2021/07/25 03:59:22;;;;;;;18.07;7.90;;;;;;;17.85;73.05;100757.31;126207;1099;104290;-78
2021/07/25 04:01:52;;;;;;;17.17;7.87;;;;;;;17.89;73.39;100753.86;126168;1099;104182;-77
2021/07/25 04:04:25;;;;;;;17.80;7.77;;;;;;;17.91;73.03;100754.75;126343;1099;104264;-77
2021/07/25 04:06:56;;;;;;;19.13;7.47;;;;;;;17.94;73.09;100760.09;126330;1099;104191;-77
2021/07/25 04:09:26;;;;;;;16.67;7.43;;;;;;;17.99;73.14;100759.25;126289;1099;104153;-77
2021/07/25 04:11:58;;;;;;;16.43;7.63;;;;;;;18.06;73.09;100753.11;126274;1099;105149;-77
2021/07/25 04:14:28;;;;;;;16.60;7.93;;;;;;;18.11;73.06;100759.37;126314;1099;104137;-77
2021/07/25 04:17:00;;;;;;;20.20;8.57;;;;;;;18.16;73.03;100762.95;126339;1099;104197;-76
2021/07/25 04:19:34;;;;;;;15.30;7.23;;;;;;;18.22;72.90;100763.00;126283;1099;104230;-77
2021/07/25 04:22:08;;;;;;;17.35;7.75;;;;;;;18.27;72.95;100763.92;126220;1099;104144;-77
2021/07/25 04:24:39;;;;;;;20.00;8.53;;;;;;;18.36;72.74;100762.23;126342;1099;104197;-77
2021/07/25 04:27:11;;;;;;;15.37;7.63;;;;;;;18.42;72.95;100771.14;126344;1098;104140;-77
2021/07/25 04:29:42;;;;;;;16.40;8.00;;;;;;;18.46;72.80;100774.70;126342;1099;104679;-78
2021/07/25 04:32:17;;;;;;;16.63;8.03;;;;;;;18.50;73.04;100774.73;126272;1099;104246;-77
2021/07/25 04:34:49;;;;;;;20.97;7.63;;;;;;;18.54;73.03;100774.76;126301;1099;104304;-77
2021/07/25 04:37:26;;;;;;;14.93;7.53;;;;;;;18.54;73.09;100782.73;126327;1099;104139;-77
2021/07/25 04:39:57;;;;;;;17.33;7.83;;;;;;;18.54;72.37;100786.27;126306;1099;104245;-77
2021/07/25 04:42:30;;;;;;;15.30;7.77;;;;;;;18.56;72.99;100784.53;126326;1099;104152;-77
2021/07/25 04:45:07;;;;;;;16.42;7.60;;;;;;;18.55;72.94;100782.73;126327;1099;105338;-76
2021/07/25 04:47:45;;;;;;;19.07;7.60;;;;;;;18.57;72.83;100785.41;126287;1099;104198;-76
2021/07/25 04:50:22;;;;;;;14.90;7.15;;;;;;;18.57;72.79;100786.28;126318;1099;104229;-76
2021/07/25 04:52:59;;;;;;;16.67;7.20;;;;;;;18.60;72.83;100778.34;125381;1099;104268;-77
2021/07/25 04:55:35;;;;;;;17.87;7.40;;;;;;;18.66;72.44;100788.13;126325;1099;104156;-77
2021/07/25 04:58:09;;;;;;;18.40;7.33;;;;;;;18.71;72.66;100788.17;126328;1099;104325;-77
2021/07/25 05:00:46;;;;;;;16.73;8.03;;;;;;;18.77;72.88;100780.23;126209;1099;104160;-76
2021/07/25 05:03:17;;;;;;;15.87;7.10;;;;;;;18.87;72.56;100782.12;126285;1099;104198;-77
2021/07/25 05:05:49;;;;;;;16.07;7.43;;;;;;;18.96;72.45;100784.80;126323;1099;104277;-77
2021/07/25 05:08:23;;;;;;;17.27;7.40;;;;;;;19.03;72.33;100781.31;126379;1099;104624;-78
2021/07/25 05:11:09;;;;;;;16.80;7.70;;;;;;;19.12;72.15;100790.20;126262;1099;104313;-78
2021/07/25 05:13:43;;;;;;;16.80;7.45;;;;;;;19.21;71.99;100784.94;126256;1099;108218;-77
2021/07/25 05:16:26;;;;;;;15.67;7.40;;;;;;;19.30;72.05;100784.98;126370;1099;104146;-78
2021/07/25 05:19:21;;;;;;;16.83;7.60;;;;;;;19.40;72.06;100786.81;126323;1099;104143;-76
2021/07/25 05:22:05;;;;;;;17.20;7.63;;;;;;;19.48;72.16;100786.84;126263;1099;104213;-76
2021/07/25 05:24:44;;;;;;;18.23;6.95;;;;;;;19.57;72.59;100788.63;126318;1099;104249;-76
2021/07/25 05:27:26;;;;;;;19.67;7.90;;;;;;;19.65;71.52;100783.33;125221;1099;104140;-77
2021/07/25 05:29:59;;;;;;;15.27;6.90;;;;;;;19.74;71.96;100786.02;125321;1099;104983;-78
2021/07/25 05:32:30;;;;;;;14.73;7.00;;;;;;;19.80;71.49;100787.84;125219;1099;104201;-77
2021/07/25 05:35:00;;;;;;;15.43;7.30;;;;;;;19.86;71.31;100786.08;125295;1099;104157;-77
2021/07/25 05:37:31;;;;;;;14.90;7.20;;;;;;;19.94;71.49;100794.08;125314;1099;104412;-77
2021/07/25 05:40:02;;;;;;;17.80;7.60;;;;;;;20.02;71.96;100789.65;125230;1102;104194;-77
2021/07/25 05:42:36;;;;;;;16.30;7.70;;;;;;;20.11;70.91;100789.66;125246;1099;104476;-77
2021/07/25 05:45:09;;;;;;;15.97;6.73;;;;;;;20.17;70.81;100785.25;125308;1100;104189;-77
2021/07/25 05:47:40;;;;;;;14.10;7.47;;;;;;;20.23;70.79;100787.92;125309;1099;104239;-77
2021/07/25 05:50:14;;;;;;;17.90;7.60;;;;;;;20.31;70.87;100785.26;125275;1099;104326;-76
2021/07/25 05:52:48;;;;;;;16.67;6.90;;;;;;;20.39;70.59;100787.02;125224;1099;104576;-77
2021/07/25 05:55:24;;;;;;;13.37;7.20;;;;;;;20.48;71.04;100788.80;125286;1103;104146;-78
2021/07/25 05:57:55;;;;;;;20.17;7.80;;;;;;;20.56;70.08;100783.47;125271;1102;104425;-77
2021/07/25 06:00:26;;;;;;;15.63;7.90;;;;;;;20.64;69.98;100795.00;126200;1099;104271;-77
2021/07/25 06:02:58;;;;;;;16.53;8.23;;;;;;;20.71;70.59;100793.24;126103;1099;104305;-77
2021/07/25 06:05:32;;;;;;;15.87;7.30;;;;;;;20.76;70.35;100792.36;126179;1099;104345;-77
2021/07/25 06:08:04;;;;;;;14.47;7.47;;;;;;;20.82;69.94;100797.68;126187;1099;104399;-77
2021/07/25 06:10:43;;;;;;;16.13;7.70;;;;;;;20.90;70.23;100795.00;126228;1099;104223;-77
2021/07/25 06:13:15;;;;;;;16.40;7.67;;;;;;;21.01;69.71;100792.31;126112;1099;104333;-77
2021/07/25 06:15:47;;;;;;;17.87;7.90;;;;;;;21.10;69.23;100794.95;125418;1099;104233;-77
2021/07/25 06:18:18;;;;;;;17.37;7.90;;;;;;;21.20;68.52;100798.47;126160;1099;104159;-76
2021/07/25 06:20:49;;;;;;;21.83;8.30;;;;;;;21.29;68.40;100792.23;126219;1099;104494;-77
2021/07/25 06:23:20;;;;;;;15.20;7.87;;;;;;;21.34;68.48;100796.63;126092;1099;104796;-76
2021/07/25 06:25:50;;;;;;;15.03;7.53;;;;;;;21.42;68.36;100785.92;126213;1099;104586;-77
2021/07/25 06:28:21;;;;;;;17.30;7.50;;;;;;;21.52;68.82;100778.81;126317;1099;104258;-77
2021/07/25 06:30:55;;;;;;;18.97;8.03;;;;;;;21.62;68.01;100787.66;126267;1099;104303;-77
2021/07/25 06:33:28;;;;;;;18.17;8.05;;;;;;;21.68;67.83;100777.82;126308;1099;104573;-77
2021/07/25 06:35:58;;;;;;;;;;;;;;;21.79;68.58;100784.89;126366;1098;104165;-77
2021/07/25 06:38:28;;;;;;;16.57;7.67;;;;;;;21.87;68.09;100785.73;126315;1099;104153;-77
2021/07/25 06:40:59;;;;;;;16.50;7.90;;;;;;;21.99;67.58;100790.99;126257;1099;104310;-77
2021/07/25 06:43:30;;;;;;;16.63;7.73;;;;;;;22.09;67.35;100789.13;126247;1099;104191;-77
2021/07/25 06:46:02;;;;;;;15.90;7.73;;;;;;;22.17;67.41;100789.95;126326;1099;104224;-78
2021/07/25 06:48:33;;;;;;;20.67;8.83;;;;;;;22.26;66.84;100789.88;126345;1099;104243;-77
2021/07/25 06:51:04;;;;;;;20.47;8.77;;;;;;;22.37;66.75;100788.95;126338;1098;104143;-77
2021/07/25 06:53:35;;;;;;;16.23;7.93;;;;;;;22.47;66.21;100793.34;126295;1099;104261;-78
2021/07/25 06:56:08;;;;;;;16.10;8.03;;;;;;;22.59;66.07;100793.23;126317;1098;104204;-76
2021/07/25 06:58:41;;;;;;;17.10;8.00;;;;;;;22.74;66.16;100794.84;126317;1099;104149;-78
2021/07/25 07:01:12;;;;;;;16.35;8.00;;;;;;;22.89;64.89;100791.14;126305;1099;104236;-77
2021/07/25 07:03:44;;;;;;;17.07;8.10;;;;;;;23.00;65.40;100788.36;126271;1099;104226;-77
2021/07/25 07:06:15;;;;;;;16.93;8.13;;;;;;;23.14;65.11;100789.11;126318;1099;104239;-77
2021/07/25 07:08:46;;;;;;;17.57;8.40;;;;;;;23.29;65.12;100790.70;126228;1099;104739;-77
2021/07/25 07:11:17;;;;;;;16.03;7.57;;;;;;;23.41;65.11;100794.16;126333;1099;104153;-77
2021/07/25 07:13:51;;;;;;;16.20;7.70;;;;;;;23.53;64.66;100788.64;126287;1099;104172;-77
2021/07/25 07:16:22;;;;;;;18.10;7.40;;;;;;;23.64;64.70;100792.05;126325;1099;104224;-77
2021/07/25 07:18:56;;;;;;;16.97;7.50;;;;;;;23.76;64.21;100788.30;126325;1099;104584;-78
2021/07/25 07:21:28;;;;;;;14.17;7.10;;;;;;;23.89;64.11;100789.06;126310;1099;104146;-77
2021/07/25 07:23:59;;;;;;;15.13;7.33;;;;;;;24.00;63.75;100783.55;126316;1099;104140;-77
2021/07/25 07:26:29;;;;;;;19.25;7.90;;;;;;;24.12;63.72;100783.35;126269;1099;104226;-77
2021/07/25 07:29:00;;;;;;;15.83;7.57;;;;;;;24.30;63.20;100784.83;126316;1099;104137;-77
2021/07/25 07:31:31;;;;;;;16.07;7.43;;;;;;;24.42;63.38;100791.80;126325;1099;104226;-77
2021/07/25 07:34:01;;;;;;;17.77;8.00;;;;;;;24.58;62.39;100801.37;125268;1099;104303;-76
2021/07/25 07:36:32;;;;;;;13.67;7.73;;;;;;;24.80;63.09;100802.80;125222;1099;104322;-77
2021/07/25 07:39:03;;;;;;;15.87;8.20;;;;;;;25.04;62.43;100806.80;125247;1099;104380;-76
2021/07/25 07:41:34;;;;;;;18.70;8.80;;;;;;;25.23;61.56;100796.60;125348;1102;104211;-78
2021/07/25 07:44:05;;;;;;;16.30;7.93;;;;;;;25.42;61.41;100789.08;125294;1099;104238;-77
2021/07/25 07:46:36;;;;;;;14.70;7.50;;;;;;;25.58;61.18;100784.25;125241;1099;104319;-77
2021/07/25 07:49:07;;;;;;;14.87;7.73;;;;;;;25.75;60.74;100786.56;125222;1099;104303;-77
2021/07/25 07:51:37;;;;;;;15.37;7.83;;;;;;;25.90;60.49;100790.67;125291;1099;104243;-77
2021/07/25 07:54:08;;;;;;;17.00;7.57;;;;;;;26.03;60.46;100783.27;125324;1099;104159;-76
2021/07/25 07:56:39;;;;;;;19.33;7.67;;;;;;;26.14;60.11;100786.58;125227;1101;104204;-77
2021/07/25 07:59:10;;;;;;;13.27;7.20;;;;;;;26.32;58.95;100791.50;125250;1102;104602;-76
2021/07/25 08:01:40;;;;;;;16.23;7.93;;;;;;;26.58;58.42;100792.63;125194;1103;104165;-77
2021/07/25 08:04:11;;;;;;;19.93;7.57;;;;;;;26.69;58.02;100793.28;125233;1102;104201;-77
2021/07/25 08:06:42;;;;;;;16.30;7.13;;;;;;;26.79;57.90;100793.91;125385;1099;104178;-75
2021/07/25 08:09:13;;;;;;;12.53;6.97;;;;;;;26.97;56.80;100799.70;126189;1098;104244;-76
2021/07/25 08:11:45;;;;;;;12.70;7.30;;;;;;;27.16;56.36;100792.89;126176;1099;104289;-77
2021/07/25 08:14:19;;;;;;;15.93;7.62;;;;;;;27.31;56.01;100796.06;126198;1099;104838;-76
2021/07/25 08:16:50;;;;;;;16.07;6.67;;;;;;;27.42;55.17;100796.66;126118;1099;105668;-76
2021/07/25 08:19:21;;;;;;;15.80;7.17;;;;;;;27.48;55.10;100801.86;126184;1099;104159;-76
2021/07/25 08:21:52;;;;;;;11.90;6.40;;;;;;;27.53;54.83;100796.34;126197;1099;104290;-77
2021/07/25 08:24:22;;;;;;;17.97;7.17;;;;;;;27.60;55.00;100795.23;126164;1099;104281;-76
2021/07/25 08:26:53;;;;;;;12.63;6.33;;;;;;;27.68;54.06;100798.56;126126;1099;104206;-78
2021/07/25 08:29:24;;;;;;;14.77;7.23;;;;;;;27.79;53.22;100796.41;125402;1099;104194;-76
2021/07/25 08:31:59;;;;;;;12.77;6.63;;;;;;;28.01;52.01;100790.38;126225;1099;104290;-76
2021/07/25 08:34:30;;;;;;;17.00;6.60;;;;;;;28.16;52.08;100789.01;125462;1099;104293;-78
2021/07/25 08:37:00;;;;;;;12.97;6.67;;;;;;;28.22;52.36;100796.91;125385;1099;104337;-77
2021/07/25 08:39:31;;;;;;;12.43;6.60;;;;;;;28.27;52.38;100796.75;126223;1099;104190;-76
2021/07/25 08:42:08;;;;;;;14.13;6.30;;;;;;;28.44;50.67;100782.69;126261;1099;104251;-77
2021/07/25 08:44:51;;;;;;;9.53;5.43;;;;;;;28.52;51.04;100780.60;125380;1099;104158;-77
2021/07/25 08:47:36;;;;;;;11.30;5.23;;;;;;;28.55;50.75;100785.89;126253;1099;104361;-77
2021/07/25 08:50:13;;;;;;;9.90;5.23;;;;;;;28.65;50.25;100784.65;126136;1099;104252;-75
2021/07/25 08:52:46;;;;;;;13.23;5.37;;;;;;;28.79;49.31;100777.89;126321;1099;105313;-76
2021/07/25 08:55:19;;;;;;;12.75;5.37;;;;;;;28.82;48.78;100783.19;126349;1099;104249;-77
2021/07/25 08:57:52;;;;;;;9.33;5.00;;;;;;;28.84;48.32;100781.30;126287;1098;104251;-77
2021/07/25 09:00:24;;;;;;;9.40;4.60;;;;;;;28.95;48.14;100772.81;126230;1099;104605;-76
2021/07/25 09:02:58;;;;;;;10.13;4.53;;;;;;;29.03;46.99;100776.10;126337;1099;104134;-76
2021/07/25 09:05:29;;;;;;;7.50;4.23;;;;;;;29.20;46.77;100776.42;126307;1099;104181;-76
2021/07/25 09:08:02;;;;;;;9.00;3.83;;;;;;;29.35;45.98;100774.94;126249;1099;104146;-76
2021/07/25 09:10:34;;;;;;;7.25;3.80;;;;;;;29.49;44.14;100765.42;126350;1099;104194;-77
2021/07/25 09:13:10;;;;;;;10.10;4.10;;;;;;;29.65;43.91;100769.27;126319;1099;104217;-76
2021/07/25 09:15:42;;;;;;;8.63;4.60;;;;;;;29.78;42.94;100763.38;126293;1099;104158;-77
2021/07/25 09:18:12;;;;;;;7.70;4.70;;;;;;;29.91;43.20;100776.37;126281;1099;104563;-76
2021/07/25 09:20:44;;;;;;;10.33;4.50;;;;;;;29.94;42.68;100773.55;126262;1099;104241;-75
2021/07/25 09:23:17;;;;;;;9.40;4.70;;;;;;;29.80;41.21;100770.53;126295;1099;104188;-75
2021/07/25 09:25:52;;;;;;;11.12;4.60;;;;;;;29.78;41.56;100774.19;126328;1099;104143;-76
2021/07/25 09:28:26;;;;;;;8.60;4.70;;;;;;;29.65;41.28;100774.67;126128;1099;104175;-77
2021/07/25 09:30:57;;;;;;;8.90;4.63;;;;;;;29.52;41.17;100774.28;126329;1099;104198;-77
2021/07/25 09:33:34;;;;;;;11.57;4.80;;;;;;;29.63;40.71;100765.75;126276;1099;104284;-77
2021/07/25 09:36:18;;;;;;;12.10;4.80;;;;;;;29.62;40.82;100768.52;126362;1099;104143;-77
2021/07/25 09:38:53;;;;;;;10.20;4.50;;;;;;;29.62;40.59;100766.69;126264;1099;104146;-77
2021/07/25 09:41:27;;;;;;;11.40;4.50;;;;;;;29.56;40.45;100769.63;126298;1099;104920;-76
2021/07/25 09:44:08;;;;;;;8.93;4.53;;;;;;;29.47;40.04;100775.42;126331;1099;104694;-76
2021/07/25 09:46:50;;;;;;;7.37;4.23;;;;;;;29.45;40.31;100788.09;126305;1099;104252;-76
2021/07/25 09:49:41;;;;;;;14.33;4.70;;;;;;;29.52;39.83;100768.01;126397;1099;104166;-76
2021/07/25 09:52:12;;;;;;;8.73;4.07;;;;;;;29.62;39.63;100774.80;126299;1099;104142;-76
2021/07/25 09:54:43;;;;;;;8.97;4.30;;;;;;;29.74;39.63;100777.02;126268;1099;104576;-75
2021/07/25 09:57:14;;;;;;;10.60;4.40;;;;;;;29.79;38.83;100779.54;126300;1099;104256;-76
2021/07/25 09:59:45;;;;;;;9.00;4.37;;;;;;;29.92;38.16;100777.28;126321;1099;104162;-76
2021/07/25 10:02:38;;;;;;;8.40;4.43;;;;;;;30.06;38.27;100774.88;126321;1099;104140;-76
2021/07/25 10:05:12;;;;;;;9.08;4.72;;;;;;;30.28;38.26;100773.98;126326;1099;104153;-76
2021/07/25 10:07:44;;;;;;;5.53;3.50;;;;;;;30.41;38.02;100772.53;126266;1097;104143;-76
2021/07/25 10:10:17;;;;;;;9.10;4.40;;;;;;;30.53;37.33;100773.84;126357;1099;104223;-76
2021/07/25 10:12:49;;;;;;;5.63;4.13;;;;;;;30.57;37.27;100770.03;126339;1099;104155;-76
2021/07/25 10:15:20;;;;;;;11.15;4.20;;;;;;;30.51;36.63;100767.62;126357;1099;104277;-75
2021/07/25 10:17:54;;;;;;;12.43;4.57;;;;;;;30.50;36.36;100765.86;126251;1099;104145;-75
2021/07/25 10:20:25;;;;;;;7.87;4.30;;;;;;;30.57;36.65;100771.88;126289;1096;104319;-76
2021/07/25 10:23:01;;;;;;;6.37;4.20;;;;;;;30.65;36.55;100766.99;126360;1099;104392;-76
2021/07/25 10:25:36;;;;;;;8.37;4.00;;;;;;;30.73;36.13;100766.66;126324;1099;104267;-76
2021/07/25 10:28:08;;;;;;;12.07;4.20;;;;;;;30.77;35.57;100769.16;126277;1099;104150;-76
2021/07/25 10:30:40;;;;;;;6.80;4.03;;;;;;;30.82;35.35;100769.86;126347;1098;104226;-76
2021/07/25 10:33:11;;;;;;;9.60;4.43;;;;;;;30.90;34.97;100771.33;126280;1099;104156;-77
2021/07/25 10:35:43;;;;;;;9.65;4.55;;;;;;;30.99;34.75;100770.95;126330;1099;104140;-76
2021/07/25 10:38:14;;;;;;;8.13;4.07;;;;;;;31.02;34.76;100762.68;126289;1099;104185;-77
2021/07/25 10:40:46;;;;;;;7.50;4.00;;;;;;;31.06;34.13;100771.57;126357;1099;104784;-77
2021/07/25 10:43:23;;;;;;;6.00;4.30;;;;;;;31.07;33.56;100760.66;126334;1099;104210;-77
2021/07/25 10:46:17;;;;;;;6.03;3.83;;;;;;;30.84;33.54;100761.67;126315;1099;104166;-78
2021/07/25 10:49:13;;;;;;;6.60;4.17;;;;;;;30.70;33.94;100759.57;125482;1099;105478;-76
2021/07/25 10:52:02;;;;;;;9.50;4.47;;;;;;;30.68;33.46;100763.28;126288;1099;104230;-76
2021/07/25 10:54:49;;;;;;;6.40;4.00;;;;;;;30.64;33.80;100760.70;126357;1098;104178;-76
2021/07/25 10:57:20;;;;;;;10.57;4.03;;;;;;;30.64;33.45;100759.84;126341;1099;104143;-76
2021/07/25 10:59:52;;;;;;;6.83;3.83;;;;;;;30.69;33.91;100756.93;126219;1099;104175;-77
2021/07/25 11:02:46;;;;;;;8.45;4.12;;;;;;;30.72;33.83;100752.25;126342;1099;104146;-77
2021/07/25 11:05:18;;;;;;;10.70;4.35;;;;;;;30.85;33.60;100751.70;125606;1099;104174;-76
2021/07/25 11:07:59;;;;;;;8.13;4.27;;;;;;;30.94;33.56;100751.28;126315;1099;104258;-76
2021/07/25 11:10:35;;;;;;;6.73;3.90;;;;;;;31.00;33.21;100748.33;126303;1099;104645;-76
2021/07/25 11:13:19;;;;;;;9.27;4.47;;;;;;;31.08;33.20;100748.85;126342;1099;104155;-77
2021/07/25 11:15:51;;;;;;;6.27;4.03;;;;;;;31.14;33.34;100745.86;126290;1099;102502;-76
2021/07/25 11:18:35;;;;;;;6.87;4.00;;;;;;;31.23;33.03;100754.50;126251;1099;104223;-76
2021/07/25 11:21:07;;;;;;;6.90;4.03;;;;;;;31.19;33.10;100745.64;126305;1099;104137;-78
2021/07/25 11:23:39;;;;;;;12.23;4.47;;;;;;;31.17;33.05;100747.55;126359;1099;104139;-77
2021/07/25 11:26:34;;;;;;;9.87;4.57;;;;;;;31.14;32.70;100737.73;126292;1099;104210;-77
2021/07/25 11:29:08;;;;;;;8.87;4.30;;;;;;;31.22;32.79;100739.21;126245;1099;104705;-75
2021/07/25 11:31:49;;;;;;;8.67;4.27;;;;;;;31.09;32.07;100739.78;126357;1099;111907;-76